Jack C. Davis Observatory, Carson City, Nevada Weather observations

Data are for observation ending at time listed.
 Day   Time    Ave.   Ave.  Ave.  Vector   Max.   Stn.    Total    Solar   Ave.  
  of    of     Air    Rel.  Wind   Wind    Wind   Baro.  Precip.   Rad.    Soil  
Year   Day     Temp.  Hum.  Speed  Dir.    Gust   Pres.                    Temp. 
2015   (PST)    F      %     mph   deg.    mph     mb.     in.     W/m2     F   
------------------------------------------------------------------------------
  88    4:50   40.3    31    3.3   257      4.8   852.6    0.00       0    999.0
  88    5:00   39.5    32    4.3   265      5.4   852.6    0.00       0    999.0
  88    5:10   38.6    33    2.6   306      5.9   852.7    0.00       0    999.0
  88    5:20   39.6    31    1.9   318      3.3   852.8    0.00       0    999.0
  88    5:30   38.5    34    2.1   285      3.3   852.8    0.00       0    999.0
  88    5:40   38.4    34    2.6   276      3.9   852.8    0.00       0    999.0
  88    5:50   38.6    33    3.9   266      5.7   852.8    0.00       2    999.0
  88    6:00   39.2    32    3.8   266      5.9   852.8    0.00       7    999.0
  88    6:10   39.1    33    2.7   274      3.8   852.8    0.00      22    999.0
  88    6:20   40.0    33    2.8   292      3.4   852.9    0.00      54    999.0
  88    6:30   41.3    33    3.4   298      4.9   853.0    0.00      93    999.0
  88    6:40   42.4    32    2.7   317      3.7   853.0    0.00     128    999.0
  88    6:50   45.1    28    1.4    38      2.3   853.0    0.00     161    999.0
  88    7:00   47.1    26    1.4    63      2.2   853.0    0.00     194    999.0
  88    7:10   47.9    26    1.8    71      3.0   852.9    0.00     228    999.0
  88    7:20   48.0    26    1.2    74      3.5   853.0    0.00     262    999.0
  88    7:30   50.8    24    1.4    90      2.3   853.0    0.00     297    999.0
  88    7:40   48.8    25    2.5    92      4.3   852.9    0.00     332    999.0
  88    7:50   47.7    25    2.8    94      4.5   852.9    0.00     366    999.0
  88    8:00   49.1    24    2.2   103      3.6   852.9    0.00     400    999.0
  88    8:10   50.6    24    2.2   100      3.8   852.8    0.00     433    999.0
  88    8:20   50.0    26    2.9    89      4.9   852.9    0.00     466    999.0
  88    8:30   51.0    25    2.4    82      5.0   852.9    0.00     498    999.0
  88    8:40   52.9    23    2.3    90      4.3   852.9    0.00     530    999.0
  88    8:50   53.0    23    2.4    86      4.5   852.8    0.00     561    999.0
  88    9:00   54.2    22    2.8    87      4.6   852.8    0.00     590    999.0
  88    9:10   55.7    22    2.0    99      4.8   852.8    0.00     619    999.0
  88    9:20   57.3    21    2.3    82      4.6   852.7    0.00     645    999.0
  88    9:30   56.6    21    2.5    81      5.2   852.7    0.00     667    999.0
  88    9:40   57.5    20    3.0    67      6.9   852.6    0.00     694    999.0
  88    9:50   58.3    20    2.6    94      6.0   852.5    0.00     718    999.0
  88   10:00   59.0    18    2.4    78      5.4   852.5    0.00     742    999.0
  88   10:10   60.2    16    3.2    91      6.0   852.4    0.00     763    999.0
  88   10:20   60.8    15    3.0   111      6.8   852.3    0.00     782    999.0
  88   10:30   62.2    14    3.2   128      5.7   852.2    0.00     799    999.0
  88   10:40   63.5    14    3.0   142      5.8   852.0    0.00     814    999.0
  88   10:50   63.3    13    2.9    81      6.0   851.8    0.00     829    999.0
  88   11:00   64.4    13    3.4   124      5.7   851.7    0.00     841    999.0
  88   11:10   64.5    13    3.3    81      6.6   851.6    0.00     850    999.0
  88   11:20   64.9    12    3.3    81      7.1   851.4    0.00     859    999.0
  88   11:30   65.1    12    5.0    72      9.8   851.3    0.00     866    999.0
  88   11:40   65.3    13    5.5   103     10.6   851.2    0.00     872    999.0
  88   11:50   66.1    12    3.5    96      8.9   851.1    0.00     875    999.0
  88   12:00   68.5    12    2.1   155      6.7   851.0    0.00     878    999.0
  88   12:10   68.4    12    5.9   124     10.3   850.8    0.00     878    999.0
  88   12:20   67.4    12    4.9    77     11.5   850.6    0.00     877    999.0
  88   12:30   68.6    12    6.3   121     12.8   850.5    0.00     872    999.0
  88   12:40   68.2    12    5.0    90      9.2   850.4    0.00     867    999.0
  88   12:50   68.5    12    5.2   108     10.6   850.2    0.00     860    999.0
  88   13:00   69.7    11    2.3   104      5.2   850.1    0.00     851    999.0
  88   13:10   72.0    12    3.2   182      6.5   849.9    0.00     840    999.0
  88   13:20   71.7    11    3.6   100      7.7   849.8    0.00     828    999.0
  88   13:30   70.4    12    4.7   102      9.6   849.6    0.00     814    999.0
  88   13:40   72.5    12    3.9   126      7.1   849.5    0.00     799    999.0
  88   13:50   71.0    12    5.0   108      9.7   849.4    0.00     782    999.0
  88   14:00   71.3    11    5.3    89     11.1   849.3    0.00     763    999.0
  88   14:10   70.8    12    6.7   102     13.9   849.2    0.00     743    999.0
  88   14:20   70.9    12    8.0    95     16.5   849.1    0.00     721    999.0
  88   14:30   70.9    12    6.6   100     13.3   849.0    0.00     699    999.0
  88   14:40   71.2    12    6.9    93     12.1   848.9    0.00     676    999.0
  88   14:50   71.4    12    7.8   103     13.6   848.8    0.00     651    999.0
  88   15:00   71.3    12    7.7    88     14.7   848.7    0.00     626    999.0
  88   15:10   71.2    12    9.3   110     15.1   848.5    0.00     599    999.0
  88   15:20   71.3    12    8.4    91     14.0   848.5    0.00     571    999.0
  88   15:30   71.1    12    8.7    93     14.3   848.5    0.00     540    999.0
  88   15:40   70.5    12    9.5   102     14.7   848.6    0.00     509    999.0
  88   15:50   70.6    12    9.1    98     14.4   848.6    0.00     475    999.0
  88   16:00   70.6    12    7.4    94     14.3   848.6    0.00     440    999.0
  88   16:10   70.4    12    7.5    79     12.2   848.6    0.00     405    999.0
  88   16:20   69.9    12    8.2    80     13.1   848.6    0.00     371    999.0
  88   16:30   69.6    12    7.0    86     12.2   848.7    0.00     336    999.0
  88   16:40   69.6    12    7.2    96     11.9   848.7    0.00     302    999.0
  88   16:50   69.2    12    6.7    79     12.2   848.7    0.00     267    999.0
  88   17:00   69.2    12    6.4    77     13.6   848.7    0.00     231    999.0
  88   17:10   68.5    12    6.5    89     11.8   848.7    0.00     197    999.0
  88   17:20   68.6    12    5.1    75      9.4   848.7    0.00     162    999.0
  88   17:30   67.4    12    5.7    76      9.0   848.8    0.00      28    999.0
  88   17:40   66.3    12    3.9    98     10.1   848.9    0.00      22    999.0
  88   17:50   65.2    13    3.4   163      6.9   849.0    0.00      20    999.0
  88   18:00   63.2    16    4.3   247      7.4   849.1    0.00      16    999.0
  88   18:10   62.0    16    4.0   260      7.0   849.2    0.00      10    999.0
  88   18:20   61.7    16    4.9   263      6.8   849.3    0.00       5    999.0
  88   18:30   60.4    18    6.3   262      8.0   849.3    0.00       1    999.0
  88   18:40   59.1    19    6.8   264      9.0   849.5    0.00       0    999.0
  88   18:50   58.2    19    6.4   271      9.8   849.6    0.00       0    999.0
  88   19:00   58.6    18    8.1   266     10.1   849.6    0.00       0    999.0
  88   19:10   57.8    19    7.7   263      9.2   849.7    0.00       0    999.0
  88   19:20   57.1    19    6.7   273      9.2   849.9    0.00       0    999.0
  88   19:30   57.3    20    5.5   288      8.6   850.0    0.00       0    999.0
  88   19:40   55.3    22    6.1   269      7.8   850.1    0.00       0    999.0
  88   19:50   54.9    23    4.8   279      8.8   850.3    0.00       0    999.0
  88   20:00   54.4    23    4.3   315      7.0   850.4    0.00       0    999.0
  88   20:10   54.6    22    5.0   312      7.1   850.5    0.00       0    999.0
  88   20:20   55.9    21    5.5   313      7.7   850.5    0.00       0    999.0
  88   20:30   54.2    23    6.1   322      8.3   850.5    0.00       0    999.0
  88   20:40   53.6    24    5.1   333      8.2   850.5    0.00       0    999.0
  88   20:50   53.7    24    4.4   331      6.9   850.6    0.00       0    999.0
  88   21:00   53.4    24    4.7   322      6.3   850.7    0.00       0    999.0
  88   21:10   53.5    24    4.8   331      8.7   850.7    0.00       0    999.0
  88   21:20   53.7    24    4.6   337      7.9   850.7    0.00       0    999.0
  88   21:30   53.8    24    5.8   327      8.9   850.8    0.00       0    999.0
  88   21:40   54.1    23    4.9   333      7.3   850.8    0.00       0    999.0
  88   21:50   53.7    24    5.2   328      7.5   850.8    0.00       0    999.0
  88   22:00   53.5    24    5.1   323      8.4   850.8    0.00       0    999.0
  88   22:10   52.6    26    4.4   272      7.6   850.9    0.00       0    999.0
  88   22:20   52.4    26    6.7   268      8.3   850.8    0.00       0    999.0
  88   22:30   52.8    25    6.3   274      8.7   850.7    0.00       0    999.0
  88   22:40   52.8    25    4.7   300      6.3   850.7    0.00       0    999.0
  88   22:50   52.8    25    4.9   277      6.6   850.6    0.00       0    999.0
  88   23:00   53.5    24    4.3   284      7.3   850.6    0.00       0    999.0
  88   23:10   52.9    24    5.9   311      8.2   850.6    0.00       0    999.0
  88   23:20   52.8    25    5.5   330      9.4   850.6    0.00       0    999.0
  88   23:30   51.6    26    3.1   331      7.7   850.6    0.00       0    999.0
  88   23:40   49.9    28    4.2   306      6.4   850.6    0.00       0    999.0
  88   23:50   49.9    28    3.5   307      5.2   850.6    0.00       0    999.0
  89    0:00   50.4    27    4.0   288      6.5   850.6    0.00       0    999.0
  89    0:10   48.5    30    4.8   281      6.5   850.6    0.00       0    999.0
  89    0:20   48.3    30    3.6   286      6.0   850.6    0.00       0    999.0
  89    0:30   49.5    28    1.4   283      2.5   850.5    0.00       0    999.0
  89    0:40   49.1    29    1.0     3      3.1   850.5    0.00       0    999.0
  89    0:50   47.5    30    2.6   307      4.1   850.6    0.00       0    999.0
  89    1:00   46.8    31    3.4   275      6.8   850.5    0.00       0    999.0
  89    1:10   46.7    32    5.2   266      6.8   850.5    0.00       0    999.0
  89    1:20   45.3    33    4.9   268      7.3   850.5    0.00       0    999.0
  89    1:30   46.3    32    4.9   281      6.1   850.4    0.00       0    999.0
  89    1:40   45.6    32    4.8   275      6.1   850.4    0.00       0    999.0
  89    1:50   46.6    31    4.0   275      5.4   850.3    0.00       0    999.0
  89    2:00   46.0    33    6.0   273      7.8   850.3    0.00       0    999.0
  89    2:10   44.5    35    4.9   278      7.2   850.3    0.00       0    999.0
  89    2:20   45.0    34    4.2   273      6.4   850.3    0.00       0    999.0
  89    2:30   45.3    33    4.1   265      5.7   850.3    0.00       0    999.0
  89    2:40   44.8    34    4.4   266      6.5   850.3    0.00       0    999.0
  89    2:50   44.1    35    5.8   268      6.8   850.2    0.00       0    999.0
  89    3:00   43.0    38    5.7   276      7.9   850.2    0.00       0    999.0
  89    3:10   45.0    34    2.6   297      3.7   850.2    0.00       0    999.0
  89    3:20   46.1    33    2.1   276      3.0   850.2    0.00       0    999.0
  89    3:30   46.1    33    2.1   280      3.8   850.2    0.00       0    999.0
  89    3:40   44.6    36    2.4   310      3.3   850.2    0.00       0    999.0
  89    3:50   43.3    39    2.7   303      3.5   850.3    0.00       0    999.0
  89    4:00   42.4    40    4.4   276      6.0   850.3    0.00       0    999.0
  89    4:10   41.8    42    4.0   287      5.5   850.2    0.00       0    999.0
  89    4:20   42.0    41    3.6   287      5.2   850.2    0.00       0    999.0
  89    4:30   42.2    42    2.6   290      3.9   850.2    0.00       0    999.0
  89    4:40   42.6    43    2.4   280      4.1   850.2    0.00       0    999.0

Return to Yerington, Nevada graphs page.


Western Regional Climate Center,wrcc@dri.edu